Time;durP1;ratioP1;P1;durP2;ratioP2;P2;SDS_P1;SDS_P2;PMS_P1;PMS_P2;Temp;Humidity;BMP_temperature;BMP_pressure;BME280_temperature;BME280_humidity;BME280_pressure;Samples;Min_cycle;Max_cycle;Signal;HPM_P1;HPM_P2
2022/07/26 00:00:54;;;;;;;8.67;7.50;;;;;;;24.07;100.00;100843.72;2073940;28;20690;-65
2022/07/26 00:01:55;;;;;;;8.13;7.43;;;;;;;23.92;100.00;100825.50;2081303;28;20276;-65
2022/07/26 00:02:55;;;;;;;9.00;7.53;;;;;;;24.03;100.00;100850.94;2072763;28;20296;-65
2022/07/26 00:03:56;;;;;;;9.43;7.80;;;;;;;24.05;100.00;100845.53;2079792;28;20246;-65
2022/07/26 00:04:57;;;;;;;9.20;8.30;;;;;;;24.05;100.00;100842.72;2080762;28;20667;-65
2022/07/26 00:05:58;;;;;;;8.83;7.97;;;;;;;24.02;100.00;100832.41;2081315;28;20415;-65
2022/07/26 00:06:59;;;;;;;9.27;8.03;;;;;;;24.00;100.00;100835.75;2080986;28;20205;-65
2022/07/26 00:08:20;;;;;;;12.77;8.40;;;;;;;23.61;100.00;100781.31;2071720;28;20174;-65
2022/07/26 00:09:20;;;;;;;8.80;8.00;;;;;;;23.65;100.00;100810.09;2074678;28;20256;-65
2022/07/26 00:10:20;;;;;;;8.40;7.60;;;;;;;23.84;100.00;100839.38;2078675;28;20458;-65
2022/07/26 00:11:21;;;;;;;8.87;7.83;;;;;;;23.80;100.00;100844.53;2073893;28;20181;-65
2022/07/26 00:12:22;;;;;;;8.80;7.83;;;;;;;23.76;100.00;100841.22;2081249;28;20229;-65
2022/07/26 00:13:22;;;;;;;8.80;7.90;;;;;;;23.71;100.00;100839.16;2080283;28;20675;-65
2022/07/26 00:14:23;;;;;;;8.60;7.80;;;;;;;23.69;100.00;100843.81;2074534;28;20197;-65
2022/07/26 00:15:23;;;;;;;10.23;8.03;;;;;;;23.66;100.00;100842.00;2072674;28;20272;-65
2022/07/26 00:16:24;;;;;;;13.43;8.67;;;;;;;23.56;100.00;100835.06;2073002;28;20185;-65
2022/07/26 00:17:24;;;;;;;10.93;8.93;;;;;;;23.62;100.00;100838.66;2074599;28;20182;-65
2022/07/26 00:18:25;;;;;;;13.23;8.97;;;;;;;23.58;100.00;100846.63;2072048;28;20228;-65
2022/07/26 00:19:25;;;;;;;9.83;8.80;;;;;;;23.37;100.00;100814.25;2072614;28;20188;-65
2022/07/26 00:20:26;;;;;;;9.47;8.30;;;;;;;23.58;100.00;100846.63;2073335;28;20190;-65
2022/07/26 00:21:27;;;;;;;8.63;7.83;;;;;;;23.61;100.00;100839.94;2072750;28;20276;-65
2022/07/26 00:22:33;;;;;;;9.47;8.43;;;;;;;23.63;100.00;100834.53;2072662;28;20213;-65
2022/07/26 00:23:34;;;;;;;9.03;8.07;;;;;;;22.79;100.00;100707.91;2072274;28;20733;-65
2022/07/26 00:24:34;;;;;;;9.33;8.30;;;;;;;23.47;100.00;100809.88;2076710;28;20440;-65
2022/07/26 00:25:36;;;;;;;10.53;8.63;;;;;;;23.55;100.00;100848.44;2077314;28;20451;-65
2022/07/26 00:26:36;;;;;;;9.93;8.70;;;;;;;23.57;100.00;100842.28;2072804;28;20224;-65
2022/07/26 00:27:37;;;;;;;9.00;8.20;;;;;;;23.40;100.00;100833.03;2073539;28;20216;-65
2022/07/26 00:28:38;;;;;;;9.17;8.07;;;;;;;23.44;100.00;100825.81;2081246;28;20685;-65
2022/07/26 00:29:38;;;;;;;9.10;8.27;;;;;;;23.58;100.00;100846.63;2073434;28;20189;-65
2022/07/26 00:30:39;;;;;;;9.83;8.27;;;;;;;23.53;100.00;100847.41;2078696;28;20228;-65
2022/07/26 00:31:39;;;;;;;9.13;8.13;;;;;;;23.52;100.00;100845.88;2080907;28;20193;-65
2022/07/26 00:32:40;;;;;;;9.40;8.50;;;;;;;23.53;100.00;100844.56;2080889;28;20239;-65
2022/07/26 00:33:40;;;;;;;8.70;7.90;;;;;;;23.49;100.00;100846.94;2080386;28;20187;-65
2022/07/26 00:34:41;;;;;;;9.10;8.20;;;;;;;23.40;100.00;100833.81;2081079;28;20618;-65
2022/07/26 00:35:41;;;;;;;8.87;8.00;;;;;;;23.47;100.00;100843.81;2080761;28;20635;-65
2022/07/26 00:36:43;;;;;;;9.10;8.20;;;;;;;23.09;100.00;100785.97;2072632;28;20189;-65
2022/07/26 00:37:43;;;;;;;9.20;8.30;;;;;;;23.46;100.00;100837.41;2073563;28;20671;-65
2022/07/26 00:38:44;;;;;;;8.67;7.87;;;;;;;23.46;100.00;100845.91;2078713;28;20538;-65
2022/07/26 00:39:44;;;;;;;9.00;8.20;;;;;;;22.93;100.00;100769.78;2074621;28;20181;-65
2022/07/26 00:40:45;;;;;;;9.43;8.10;;;;;;;23.49;100.00;100844.09;2065630;28;20194;-65
2022/07/26 00:41:45;;;;;;;10.93;8.30;;;;;;;23.49;100.00;100842.03;2073641;28;20276;-65
2022/07/26 00:42:46;;;;;;;9.83;8.60;;;;;;;23.53;100.00;100848.19;2067253;28;20202;-65
2022/07/26 00:43:54;;;;;;;9.67;8.50;;;;;;;23.43;100.00;100827.13;2065839;28;20178;-65
2022/07/26 00:44:55;;;;;;;9.37;8.33;;;;;;;22.99;100.00;100764.94;2071198;28;20200;-65
2022/07/26 00:45:56;;;;;;;10.07;8.50;;;;;;;23.59;100.00;100842.53;2073654;28;20417;-65
2022/07/26 00:46:57;;;;;;;8.63;7.83;;;;;;;23.51;100.00;100838.69;2073970;28;20257;-65
2022/07/26 00:47:57;;;;;;;8.67;7.30;;;;;;;23.51;100.00;100839.47;2074247;28;20166;-65
2022/07/26 00:48:58;;;;;;;8.60;7.80;;;;;;;22.62;100.00;100707.91;2074526;28;20564;-65
2022/07/26 00:49:59;;;;;;;9.47;8.07;;;;;;;23.44;100.00;100842.03;2067095;28;20588;-65
2022/07/26 00:50:59;;;;;;;9.03;8.07;;;;;;;23.42;100.00;100836.91;2066322;28;20178;-65
2022/07/26 00:52:00;;;;;;;9.13;8.20;;;;;;;23.12;100.00;100792.66;2070649;28;20682;-65
2022/07/26 00:53:00;;;;;;;10.00;8.30;;;;;;;23.41;100.00;100841.00;2071017;28;20800;-65
2022/07/26 00:54:02;;;;;;;10.70;8.90;;;;;;;23.30;100.00;100828.94;2068300;28;20249;-65
2022/07/26 00:55:06;;;;;;;9.37;8.47;;;;;;;22.72;100.00;100745.16;2073861;28;20173;-65
2022/07/26 00:56:06;;;;;;;9.13;8.33;;;;;;;22.97;100.00;100784.44;2073795;28;20451;-65
2022/07/26 00:57:07;;;;;;;9.80;8.50;;;;;;;23.42;100.00;100853.09;2066307;28;20181;-65
2022/07/26 00:58:07;;;;;;;9.43;8.27;;;;;;;23.40;100.00;100852.84;2073845;28;20655;-65
2022/07/26 00:59:08;;;;;;;9.90;8.43;;;;;;;23.29;100.00;100850.78;2074210;28;20567;-65
2022/07/26 01:00:12;;;;;;;9.37;8.47;;;;;;;23.19;100.00;100851.56;2069044;28;20197;-65
2022/07/26 01:01:13;;;;;;;9.03;8.13;;;;;;;22.44;100.00;100738.66;2070552;28;20193;-65
2022/07/26 01:02:14;;;;;;;10.60;8.50;;;;;;;23.22;100.00;100854.13;2074134;28;20483;-65
2022/07/26 01:03:14;;;;;;;10.30;8.10;;;;;;;;;;2074083;28;20186;-65
2022/07/26 01:04:15;;;;;;;16.60;9.60;;;;;;;23.17;100.00;100856.91;2073380;28;20448;-65
2022/07/26 01:05:15;;;;;;;20.57;10.23;;;;;;;22.27;100.00;100730.16;2066079;28;20205;-65
2022/07/26 01:06:16;;;;;;;14.57;10.07;;;;;;;23.03;100.00;100838.16;2073813;28;20193;-65
2022/07/26 01:07:17;;;;;;;11.57;9.33;;;;;;;23.07;100.00;100847.91;2074070;28;20185;-65
2022/07/26 01:08:17;;;;;;;11.70;9.37;;;;;;;23.10;100.00;100844.06;2074180;28;20204;-65
2022/07/26 01:09:18;;;;;;;10.30;9.30;;;;;;;23.11;100.00;100850.47;2069722;28;20200;-65
2022/07/26 01:10:19;;;;;;;13.30;9.13;;;;;;;23.12;100.00;100846.38;2066041;28;20225;-65
2022/07/26 01:11:20;;;;;;;9.30;8.50;;;;;;;23.15;100.00;100846.13;2066240;28;20992;-65
2022/07/26 01:12:20;;;;;;;9.17;8.27;;;;;;;23.15;100.00;100843.31;2067313;28;20851;-65
2022/07/26 01:13:21;;;;;;;10.20;9.20;;;;;;;23.17;100.00;100846.38;2074138;28;20188;-65
2022/07/26 01:14:22;;;;;;;9.53;8.60;;;;;;;23.17;100.00;100846.38;2066321;28;20174;-65
2022/07/26 01:15:23;;;;;;;11.23;9.17;;;;;;;22.83;100.00;100796.75;2072889;28;20573;-65
2022/07/26 01:16:24;;;;;;;10.13;9.13;;;;;;;23.03;100.00;100824.78;2068199;28;20765;-65
2022/07/26 01:17:24;;;;;;;10.87;8.77;;;;;;;22.78;100.00;100796.78;2070655;28;20683;-65
2022/07/26 01:18:25;;;;;;;10.47;8.60;;;;;;;23.08;100.00;100840.22;2074299;28;20601;-65
2022/07/26 01:19:25;;;;;;;9.67;8.27;;;;;;;23.12;100.00;100852.03;2071404;28;20672;-65
2022/07/26 01:20:26;;;;;;;9.40;7.70;;;;;;;23.15;100.00;100853.84;2058166;28;20183;-65
2022/07/26 01:21:30;;;;;;;11.27;8.20;;;;;;;23.18;100.00;100856.44;2065638;28;20186;-65
2022/07/26 01:22:31;;;;;;;11.33;9.00;;;;;;;22.94;100.00;100833.53;2073938;28;20202;-65
2022/07/26 01:23:32;;;;;;;9.43;8.43;;;;;;;23.16;100.00;100841.25;2067947;28;20178;-65
2022/07/26 01:24:33;;;;;;;9.07;8.23;;;;;;;23.16;100.00;100841.25;2065802;28;20281;-65
2022/07/26 01:25:35;;;;;;;10.77;8.77;;;;;;;23.22;100.00;100862.59;2069478;28;20194;-65
2022/07/26 01:26:36;;;;;;;10.00;9.00;;;;;;;23.24;100.00;100854.38;2073911;28;20197;-65
2022/07/26 01:27:40;;;;;;;11.97;9.13;;;;;;;23.24;100.00;100851.53;2073934;28;20216;-65
2022/07/26 01:28:41;;;;;;;10.97;8.47;;;;;;;23.25;100.00;100855.16;2073024;28;20173;-65
2022/07/26 01:29:41;;;;;;;9.17;8.37;;;;;;;23.24;100.00;100859.28;2066195;28;20179;-65
2022/07/26 01:30:42;;;;;;;9.23;8.33;;;;;;;23.20;100.00;100838.97;2073113;28;20743;-65
2022/07/26 01:31:42;;;;;;;10.70;9.07;;;;;;;23.16;100.00;100838.41;2068125;28;20194;-65
2022/07/26 01:32:43;;;;;;;9.67;8.40;;;;;;;23.18;100.00;100852.84;2066047;28;20178;-65
2022/07/26 01:33:44;;;;;;;9.03;8.10;;;;;;;23.07;100.00;100833.00;2069458;28;20590;-65
2022/07/26 01:34:44;;;;;;;9.63;8.73;;;;;;;22.46;100.00;100748.19;2073746;28;20240;-65
2022/07/26 01:35:45;;;;;;;9.23;8.37;;;;;;;23.06;100.00;100849.22;2073733;28;20264;-65
2022/07/26 01:36:45;;;;;;;9.47;8.53;;;;;;;22.79;100.00;100804.75;2074128;28;20173;-65
2022/07/26 01:37:46;;;;;;;10.33;9.33;;;;;;;23.01;100.00;100843.53;2066246;28;20277;-65
2022/07/26 01:38:47;;;;;;;10.03;9.00;;;;;;;22.95;100.00;100829.41;2072548;28;20182;-65
2022/07/26 01:39:47;;;;;;;10.83;9.60;;;;;;;23.01;100.00;100833.00;2068372;28;20222;-65
2022/07/26 01:40:47;;;;;;;10.43;8.80;;;;;;;23.04;100.00;100837.66;2069658;28;20204;-65
2022/07/26 01:41:48;;;;;;;10.77;9.40;;;;;;;23.03;100.00;100841.75;2074228;28;20626;-65
2022/07/26 01:42:48;;;;;;;11.03;9.97;;;;;;;23.07;100.00;100849.97;2081520;28;20193;-65
2022/07/26 01:43:49;;;;;;;11.70;9.60;;;;;;;23.04;100.00;100848.19;2082110;28;20235;-65
2022/07/26 01:44:49;;;;;;;11.90;9.63;;;;;;;23.05;100.00;100846.88;2082037;28;20172;-65
2022/07/26 01:45:50;;;;;;;11.60;9.07;;;;;;;22.27;100.00;100735.03;2081815;28;20263;-65
2022/07/26 01:46:50;;;;;;;10.63;9.63;;;;;;;23.01;100.00;100846.38;2081681;28;20200;-65
2022/07/26 01:47:51;;;;;;;12.83;9.30;;;;;;;22.97;100.00;100843.03;2077592;28;20184;-65
2022/07/26 01:48:52;;;;;;;12.90;9.80;;;;;;;22.96;100.00;100844.31;2074651;28;20186;-65
2022/07/26 01:49:52;;;;;;;12.57;9.47;;;;;;;22.82;100.00;100822.72;2082415;28;20252;-65
2022/07/26 01:50:53;;;;;;;13.10;9.33;;;;;;;22.79;100.00;100815.25;2082293;28;20173;-65
2022/07/26 01:51:53;;;;;;;11.30;9.57;;;;;;;22.94;100.00;100846.88;2082420;28;20254;-65
2022/07/26 01:52:53;;;;;;;10.70;9.47;;;;;;;22.23;100.00;100746.59;2082115;28;20279;-65
2022/07/26 01:53:54;;;;;;;10.30;9.30;;;;;;;22.94;100.00;100849.72;2076642;28;20546;-65
2022/07/26 01:54:54;;;;;;;10.33;9.10;;;;;;;21.87;100.00;100693.13;2078390;28;20173;-65
2022/07/26 01:55:55;;;;;;;10.20;9.17;;;;;;;22.89;100.00;100845.59;2079027;28;20177;-65
2022/07/26 01:56:55;;;;;;;10.53;9.40;;;;;;;22.84;100.00;100849.19;2075939;28;20173;-65
2022/07/26 01:57:56;;;;;;;10.37;9.37;;;;;;;21.72;100.00;100681.25;2081991;28;20165;-65
2022/07/26 01:58:57;;;;;;;10.83;9.50;;;;;;;22.77;100.00;100840.44;2082345;28;20170;-65
2022/07/26 01:59:57;;;;;;;13.50;10.10;;;;;;;22.82;100.00;100851.75;2081652;28;20192;-65
2022/07/26 02:00:58;;;;;;;16.73;10.87;;;;;;;22.82;100.00;100854.56;2075443;28;20213;-65
2022/07/26 02:01:58;;;;;;;16.67;10.47;;;;;;;22.02;100.00;100727.53;2079213;28;20315;-65
2022/07/26 02:03:00;;;;;;;16.43;10.03;;;;;;;22.83;100.00;100852.53;2081396;28;20224;-65
2022/07/26 02:04:00;;;;;;;16.13;10.13;;;;;;;22.74;100.00;100856.38;2079342;28;20169;-65
2022/07/26 02:05:01;;;;;;;23.20;10.17;;;;;;;22.76;100.00;100859.44;2073177;28;20420;-65
2022/07/26 02:06:02;;;;;;;22.43;10.80;;;;;;;22.73;100.00;100854.81;2074110;28;20177;-65
2022/07/26 02:07:02;;;;;;;24.47;10.70;;;;;;;22.70;100.00;100857.88;2073671;28;20191;-65
2022/07/26 02:08:03;;;;;;;15.33;10.83;;;;;;;22.72;100.00;100855.34;2080774;28;20660;-65
2022/07/26 02:09:03;;;;;;;14.83;10.60;;;;;;;22.57;100.00;100835.75;2082135;28;20181;-65
2022/07/26 02:10:05;;;;;;;11.10;9.90;;;;;;;22.65;100.00;100856.59;2081556;28;20204;-65
2022/07/26 02:11:06;;;;;;;13.73;10.33;;;;;;;22.37;100.00;100807.69;2079775;28;20211;-65
2022/07/26 02:12:07;;;;;;;14.53;10.43;;;;;;;22.69;100.00;100862.00;2074753;28;20937;-65
2022/07/26 02:13:07;;;;;;;16.60;10.33;;;;;;;21.92;100.00;100748.78;2082224;28;20180;-65
2022/07/26 02:14:08;;;;;;;17.13;10.80;;;;;;;22.63;100.00;100859.13;2081237;28;20181;-65
2022/07/26 02:15:09;;;;;;;15.73;10.00;;;;;;;22.62;100.00;100854.03;2074996;28;20181;-65
2022/07/26 02:16:13;;;;;;;15.13;10.30;;;;;;;22.65;100.00;100864.28;2078581;28;20195;-65
2022/07/26 02:17:14;;;;;;;15.43;10.33;;;;;;;22.63;100.00;100856.31;2081173;28;20475;-65
2022/07/26 02:18:14;;;;;;;16.30;10.43;;;;;;;22.62;100.00;100860.44;2081727;28;20416;-65
2022/07/26 02:19:15;;;;;;;12.97;10.83;;;;;;;22.61;100.00;100861.72;2081922;28;20180;-65
2022/07/26 02:20:15;;;;;;;12.57;10.33;;;;;;;22.61;100.00;100858.88;2082179;28;20256;-65
2022/07/26 02:21:16;;;;;;;13.97;10.63;;;;;;;22.31;100.00;100823.09;2081760;28;20268;-65
2022/07/26 02:22:18;;;;;;;19.57;10.87;;;;;;;22.60;100.00;100862.22;2082014;28;20566;-65
2022/07/26 02:23:20;;;;;;;16.17;10.27;;;;;;;22.61;100.00;100855.31;2076027;28;20193;-65
2022/07/26 02:24:21;;;;;;;12.70;9.23;;;;;;;22.27;100.00;100831.03;2077984;28;20530;-65
2022/07/26 02:25:21;;;;;;;10.23;9.17;;;;;;;22.25;100.00;100830.75;2081680;28;20420;-65
2022/07/26 02:26:22;;;;;;;10.87;9.77;;;;;;;22.31;100.00;100857.72;2081601;28;20667;-65
2022/07/26 02:27:22;;;;;;;11.60;9.60;;;;;;;22.34;100.00;100856.72;2081850;28;20176;-65
2022/07/26 02:28:23;;;;;;;10.20;9.20;;;;;;;22.24;100.00;100835.63;2082110;28;20247;-65
2022/07/26 02:29:23;;;;;;;10.03;9.00;;;;;;;22.41;100.00;100861.88;2081277;28;20210;-65
2022/07/26 02:30:24;;;;;;;10.53;9.37;;;;;;;22.42;100.00;100857.75;2081708;28;20180;-65
2022/07/26 02:31:24;;;;;;;10.53;9.60;;;;;;;22.41;100.00;100855.47;2081871;28;20557;-65
2022/07/26 02:32:25;;;;;;;11.53;9.67;;;;;;;22.42;100.00;100854.94;2079514;28;20180;-65
2022/07/26 02:33:25;;;;;;;10.23;9.10;;;;;;;21.46;100.00;100715.22;2074558;28;20609;-65
2022/07/26 02:34:26;;;;;;;10.17;9.17;;;;;;;22.38;100.00;100854.44;2082017;28;20655;-65
2022/07/26 02:35:27;;;;;;;11.60;10.30;;;;;;;22.32;100.00;100864.16;2081590;28;20189;-65
2022/07/26 02:36:27;;;;;;;23.57;12.40;;;;;;;22.25;100.00;100859.75;2081579;28;20315;-65
2022/07/26 02:37:27;;;;;;;19.13;11.87;;;;;;;22.17;100.00;100855.09;2081510;28;20181;-65
2022/07/26 02:38:28;;;;;;;13.50;10.47;;;;;;;22.12;100.00;100859.47;2072994;28;20603;-65
2022/07/26 02:39:29;;;;;;;14.63;10.57;;;;;;;22.04;100.00;100863.25;2072892;28;20264;-65
2022/07/26 02:40:30;;;;;;;12.93;10.03;;;;;;;21.93;100.00;100863.97;2073226;28;20255;-65
2022/07/26 02:41:31;;;;;;;10.20;9.07;;;;;;;21.88;100.00;100863.94;2073774;28;20593;-65
2022/07/26 02:42:31;;;;;;;11.20;9.53;;;;;;;21.53;100.00;100813.44;2081570;28;20513;-65
2022/07/26 02:43:32;;;;;;;10.87;9.53;;;;;;;21.89;100.00;100868.28;2081408;28;20199;-65
2022/07/26 02:44:33;;;;;;;13.30;10.23;;;;;;;21.86;100.00;100863.66;2081295;28;20195;-65
2022/07/26 02:45:34;;;;;;;10.87;9.80;;;;;;;21.87;100.00;100871.63;2081376;28;20671;-65
2022/07/26 02:46:35;;;;;;;12.50;11.10;;;;;;;21.83;100.00;100873.13;2081268;28;20842;-65
2022/07/26 02:47:45;;;;;;;11.93;10.67;;;;;;;21.84;100.00;100869.03;2081522;28;20684;-65
2022/07/26 02:48:45;;;;;;;13.03;11.00;;;;;;;21.79;100.00;100862.09;2081591;28;20412;-65
2022/07/26 02:49:46;;;;;;;13.87;10.80;;;;;;;21.73;100.00;100863.31;2081963;28;20928;-65
2022/07/26 02:50:46;;;;;;;14.83;11.30;;;;;;;21.72;100.00;100873.06;2081310;28;20202;-65
2022/07/26 02:51:47;;;;;;;14.27;10.23;;;;;;;21.73;100.00;100866.94;2075424;28;20180;-65
2022/07/26 02:52:48;;;;;;;15.53;10.33;;;;;;;21.77;100.00;100872.31;2078177;28;20231;-65
2022/07/26 02:53:49;;;;;;;11.40;10.40;;;;;;;21.80;100.00;100874.16;2078262;28;20204;-65
2022/07/26 02:54:49;;;;;;;12.43;10.67;;;;;;;21.79;100.00;100879.00;2075147;28;20483;-65
2022/07/26 02:55:50;;;;;;;13.70;10.57;;;;;;;20.99;100.00;100749.75;2080923;28;20191;-65
2022/07/26 02:56:50;;;;;;;13.17;10.60;;;;;;;21.83;100.00;100881.59;2073399;28;20173;-65
2022/07/26 02:57:51;;;;;;;16.63;11.80;;;;;;;21.85;100.00;100879.06;2071992;28;20734;-65
2022/07/26 02:58:51;;;;;;;12.53;11.23;;;;;;;21.37;100.00;100831.00;2071712;28;20200;-65
2022/07/26 02:59:52;;;;;;;12.40;11.10;;;;;;;21.84;100.00;100877.50;2077467;28;20181;-65
2022/07/26 03:00:52;;;;;;;14.40;10.20;;;;;;;21.81;100.00;100870.81;2076012;28;20604;-65
2022/07/26 03:01:53;;;;;;;11.90;10.70;;;;;;;21.75;100.00;100867.19;2081088;28;20182;-65
2022/07/26 03:02:53;;;;;;;14.40;9.83;;;;;;;21.73;100.00;100874.59;2081827;28;20197;-65
2022/07/26 03:03:54;;;;;;;14.27;10.20;;;;;;;21.75;100.00;100872.81;2081522;28;20663;-65
2022/07/26 03:04:54;;;;;;;11.87;10.03;;;;;;;21.75;100.00;100867.19;2080561;28;20267;-65
2022/07/26 03:05:55;;;;;;;10.83;9.77;;;;;;;21.68;100.00;100875.31;2081719;28;20173;-65
2022/07/26 03:06:55;;;;;;;11.23;10.03;;;;;;;21.68;100.00;100869.66;2080906;28;20169;-65
2022/07/26 03:07:56;;;;;;;13.73;10.50;;;;;;;21.67;100.00;100871.72;2080991;28;20172;-65
2022/07/26 03:08:56;;;;;;;11.17;10.17;;;;;;;21.67;100.00;100877.38;2073593;28;20174;-65
2022/07/26 03:09:57;;;;;;;16.53;10.53;;;;;;;21.65;100.00;100871.44;2073694;28;20199;-65
2022/07/26 03:10:58;;;;;;;19.33;11.50;;;;;;;21.06;100.00;100804.88;2078911;28;20198;-65
2022/07/26 03:11:59;;;;;;;17.60;11.93;;;;;;;21.57;100.00;100878.06;2081212;28;20267;-65
2022/07/26 03:12:59;;;;;;;16.23;11.90;;;;;;;21.55;100.00;100869.34;2081419;28;20412;-65
2022/07/26 03:14:00;;;;;;;16.20;10.83;;;;;;;21.57;100.00;100876.03;2080642;28;20173;-65
2022/07/26 03:15:01;;;;;;;20.40;12.23;;;;;;;20.42;100.00;100694.72;2073535;28;20201;-65
2022/07/26 03:16:02;;;;;;;16.23;11.17;;;;;;;21.59;100.00;100875.53;2073091;28;20237;-65
2022/07/26 03:17:02;;;;;;;17.40;11.23;;;;;;;21.59;100.00;100878.34;2079928;28;20666;-65
2022/07/26 03:18:03;;;;;;;18.07;11.23;;;;;;;21.63;100.00;100874.00;2076033;28;20448;-65
2022/07/26 03:19:03;;;;;;;12.80;10.07;;;;;;;21.69;100.00;100876.91;2076604;28;20204;-65
2022/07/26 03:20:04;;;;;;;15.93;10.97;;;;;;;21.69;100.00;100885.38;2081192;28;20314;-65
2022/07/26 03:21:05;;;;;;;12.00;10.63;;;;;;;21.73;100.00;100874.59;2080812;28;20181;-65
2022/07/26 03:22:05;;;;;;;12.83;10.63;;;;;;;21.74;100.00;100873.34;2081737;28;20169;-65
2022/07/26 03:23:06;;;;;;;14.33;10.80;;;;;;;21.77;100.00;100880.78;2073699;28;20225;-65
2022/07/26 03:24:06;;;;;;;12.90;10.47;;;;;;;21.79;100.00;100878.22;2079547;28;20644;-65
2022/07/26 03:25:07;;;;;;;11.83;10.37;;;;;;;21.83;100.00;100882.38;2081315;28;20318;-65
2022/07/26 03:26:08;;;;;;;12.63;10.27;;;;;;;21.85;100.00;100890.34;2081069;28;20209;-65
2022/07/26 03:27:08;;;;;;;11.73;10.63;;;;;;;21.79;100.00;100881.84;2079452;28;20173;-65
2022/07/26 03:28:09;;;;;;;12.07;10.83;;;;;;;21.90;100.00;100886.78;2073463;28;20196;-65
2022/07/26 03:29:10;;;;;;;11.63;10.53;;;;;;;21.07;100.00;100756.47;2073415;28;20612;-65
2022/07/26 03:30:11;;;;;;;12.20;11.00;;;;;;;21.92;100.00;100875.75;2081204;28;20196;-65
2022/07/26 03:31:12;;;;;;;12.07;10.87;;;;;;;21.91;100.00;100883.44;2081235;28;20208;-65
2022/07/26 03:32:12;;;;;;;12.53;10.13;;;;;;;21.98;100.00;100882.19;2081358;28;20833;-65
2022/07/26 03:33:13;;;;;;;12.17;10.97;;;;;;;21.39;100.00;100788.22;2076924;28;20428;-65
2022/07/26 03:34:13;;;;;;;11.47;9.87;;;;;;;22.02;100.00;100880.72;2076156;28;20193;-65
2022/07/26 03:35:14;;;;;;;11.00;9.90;;;;;;;21.85;100.00;100860.06;2081099;28;20177;-65
2022/07/26 03:36:14;;;;;;;12.47;11.17;;;;;;;22.01;100.00;100881.97;2081307;28;20597;-65
2022/07/26 03:37:15;;;;;;;11.50;10.30;;;;;;;21.12;100.00;100752.94;2081284;28;20173;-65
2022/07/26 03:38:16;;;;;;;12.23;10.73;;;;;;;21.78;100.00;100851.31;2081287;28;20215;-65
2022/07/26 03:39:16;;;;;;;16.33;10.90;;;;;;;22.02;100.00;100877.88;2074558;28;20257;-65
2022/07/26 03:40:17;;;;;;;13.07;10.43;;;;;;;21.96;100.00;100870.66;2078729;28;20220;-65
2022/07/26 03:41:18;;;;;;;11.90;10.70;;;;;;;21.53;100.00;100838.03;2081252;28;20192;-65
2022/07/26 03:42:18;;;;;;;19.37;10.47;;;;;;;22.08;100.00;100883.53;2080855;28;20559;-65
2022/07/26 03:43:19;;;;;;;19.17;12.27;;;;;;;22.10;100.00;100881.00;2081259;28;20235;-65
2022/07/26 03:44:19;;;;;;;21.37;11.47;;;;;;;22.10;100.00;100875.34;2081177;28;20169;-65
2022/07/26 03:45:20;;;;;;;23.53;11.73;;;;;;;21.85;100.00;100834.69;2081171;28;20196;-65
2022/07/26 03:46:20;;;;;;;19.80;11.33;;;;;;;22.13;100.00;100877.94;2080490;28;20189;-65
2022/07/26 03:47:21;;;;;;;18.47;11.40;;;;;;;22.12;100.00;100878.44;2080819;28;20192;-65
2022/07/26 03:48:21;;;;;;;12.90;10.13;;;;;;;22.06;100.00;100875.56;2081184;28;20181;-65
2022/07/26 03:49:22;;;;;;;13.30;10.47;;;;;;;22.04;100.00;100872.50;2078834;28;20609;-65
2022/07/26 03:50:22;;;;;;;20.87;11.00;;;;;;;22.08;100.00;100875.06;2072986;28;20253;-65
2022/07/26 03:51:23;;;;;;;22.30;11.60;;;;;;;22.02;100.00;100877.88;2073448;28;20200;-65
2022/07/26 03:52:23;;;;;;;23.53;11.60;;;;;;;21.99;100.00;100878.09;2073168;28;20656;-65
2022/07/26 03:53:23;;;;;;;20.03;11.37;;;;;;;22.06;100.00;100877.63;2073004;28;20255;-65
2022/07/26 03:54:24;;;;;;;19.47;11.50;;;;;;;22.03;100.00;100870.16;2073210;28;20190;-65
2022/07/26 03:56:43;;;;;;;19.73;11.43;;;;;;;22.09;100.00;100870.97;2075859;28;20256;-65
2022/07/26 03:57:44;;;;;;;14.23;10.93;;;;;;;22.09;100.00;100870.97;2072940;28;20452;-65
2022/07/26 03:58:44;;;;;;;18.13;10.87;;;;;;;22.09;100.00;100874.56;2075815;28;20200;-65
2022/07/26 03:59:45;;;;;;;17.63;10.77;;;;;;;22.05;100.00;100867.63;2081338;28;20169;-65
2022/07/26 04:00:45;;;;;;;16.57;11.10;;;;;;;22.15;100.00;100878.19;2081033;28;20188;-65
2022/07/26 04:01:46;;;;;;;20.07;11.50;;;;;;;21.67;100.00;100806.06;2081356;28;20184;-65
2022/07/26 04:02:47;;;;;;;14.17;11.07;;;;;;;22.11;100.00;100876.91;2073750;28;20729;-65
2022/07/26 04:03:47;;;;;;;16.43;11.23;;;;;;;22.14;100.00;100882.28;2079196;28;20817;-65
2022/07/26 04:04:48;;;;;;;12.53;10.47;;;;;;;22.19;100.00;100875.13;2080583;28;20184;-65
2022/07/26 04:05:48;;;;;;;18.00;11.37;;;;;;;22.07;100.00;100859.41;2077969;28;20185;-65
2022/07/26 04:06:49;;;;;;;14.67;10.97;;;;;;;22.02;100.00;100844.03;2074310;28;20616;-65
2022/07/26 04:07:50;;;;;;;12.27;10.37;;;;;;;22.25;100.00;100879.53;2081061;28;20176;-65
2022/07/26 04:08:50;;;;;;;14.00;10.97;;;;;;;22.29;100.00;100877.25;2073142;28;20231;-65
2022/07/26 04:09:51;;;;;;;14.90;11.07;;;;;;;22.34;100.00;100876.50;2079720;28;20582;-65
2022/07/26 04:10:51;;;;;;;15.00;10.63;;;;;;;22.40;100.00;100882.13;2075203;28;20304;-65
2022/07/26 04:11:52;;;;;;;14.60;10.07;;;;;;;22.32;100.00;100864.91;2073119;28;20543;-65
2022/07/26 04:12:52;;;;;;;14.03;10.67;;;;;;;22.25;100.00;100858.97;2072541;28;20260;-65
2022/07/26 04:13:53;;;;;;;16.40;10.50;;;;;;;22.47;100.00;100885.28;2072647;28;20182;-65
2022/07/26 04:14:53;;;;;;;12.83;10.97;;;;;;;22.43;100.00;100875.50;2072456;28;20166;-65
2022/07/26 04:15:54;;;;;;;14.50;10.83;;;;;;;22.53;100.00;100883.28;2073095;28;20170;-65
2022/07/26 04:16:54;;;;;;;13.03;11.13;;;;;;;22.56;100.00;100884.31;2072778;28;20196;-65
2022/07/26 04:17:55;;;;;;;14.70;10.33;;;;;;;22.58;100.00;100899.47;2079693;28;20246;-65
2022/07/26 04:18:55;;;;;;;13.90;10.80;;;;;;;22.64;100.00;100885.34;2080998;28;20264;-65
2022/07/26 04:19:55;;;;;;;15.20;10.70;;;;;;;22.69;100.00;100874.06;2076441;28;20193;-65
2022/07/26 04:20:56;;;;;;;13.70;10.77;;;;;;;22.73;100.00;100880.22;2072879;28;20177;-65
2022/07/26 04:21:57;;;;;;;16.10;10.93;;;;;;;22.71;100.00;100874.31;2075008;28;20182;-65
2022/07/26 04:22:57;;;;;;;15.07;11.60;;;;;;;22.76;100.00;100878.44;2080641;28;20228;-65
2022/07/26 04:23:58;;;;;;;13.43;10.33;;;;;;;22.85;100.00;100881.03;2081071;28;20431;-65
2022/07/26 04:24:59;;;;;;;14.63;11.63;;;;;;;22.52;100.00;100830.13;2078754;28;20180;-65
2022/07/26 04:25:59;;;;;;;16.60;10.90;;;;;;;22.91;100.00;100871.28;2080553;28;20184;-66
2022/07/26 04:27:00;;;;;;;15.30;11.20;;;;;;;22.94;100.00;100873.09;2079995;28;20227;-66
2022/07/26 04:28:01;;;;;;;15.40;11.07;;;;;;;22.97;100.00;100871.31;2078092;28;20193;-66
2022/07/26 04:29:01;;;;;;;18.60;10.30;;;;;;;23.05;100.00;100872.31;2080428;28;20205;-66
2022/07/26 04:30:21;;;;;;;13.13;10.73;;;;;;;23.09;100.00;100870.03;2079683;28;20177;-66
2022/07/26 04:31:21;;;;;;;17.27;11.43;;;;;;;23.11;100.00;100873.88;2078265;28;20562;-66
2022/07/26 04:32:22;;;;;;;14.90;11.10;;;;;;;23.18;100.00;100873.41;2079229;28;20264;-66
2022/07/26 04:33:23;;;;;;;14.17;10.90;;;;;;;23.22;100.00;100875.97;2073391;28;20224;-66
2022/07/26 04:34:24;;;;;;;13.70;10.73;;;;;;;23.27;100.00;100880.84;2079846;28;20223;-66
2022/07/26 04:35:24;;;;;;;19.23;10.93;;;;;;;23.17;100.00;100845.59;2079637;28;20184;-65
2022/07/26 04:36:25;;;;;;;12.63;11.10;;;;;;;23.36;100.00;100867.25;2079555;28;20276;-66
2022/07/26 04:37:25;;;;;;;15.47;10.73;;;;;;;;;;2079568;28;20189;-66
2022/07/26 04:38:26;;;;;;;15.50;10.97;;;;;;;22.52;100.00;100731.28;2080066;28;20208;-66